sensor_id;sensor_type;location;lat;lon;timestamp;temperature;humidity
56512;DHT22;42408;53.238;5.686;2023-04-06T00:00:56;4.20;99.90
56512;DHT22;42408;53.238;5.686;2023-04-06T00:03:21;4.20;99.90
56512;DHT22;42408;53.238;5.686;2023-04-06T00:05:48;4.20;99.90
56512;DHT22;42408;53.238;5.686;2023-04-06T00:08:13;4.20;99.90
56512;DHT22;42408;53.238;5.686;2023-04-06T00:10:39;4.20;99.90
56512;DHT22;42408;53.238;5.686;2023-04-06T00:13:05;4.10;99.90
56512;DHT22;42408;53.238;5.686;2023-04-06T00:15:32;4.10;99.90
56512;DHT22;42408;53.238;5.686;2023-04-06T00:17:57;4.10;99.90
56512;DHT22;42408;53.238;5.686;2023-04-06T00:20:23;4.00;99.90
56512;DHT22;42408;53.238;5.686;2023-04-06T00:22:49;4.00;99.90
56512;DHT22;42408;53.238;5.686;2023-04-06T00:25:14;4.00;99.90
56512;DHT22;42408;53.238;5.686;2023-04-06T00:27:41;3.90;99.90
56512;DHT22;42408;53.238;5.686;2023-04-06T00:30:07;3.90;99.90
56512;DHT22;42408;53.238;5.686;2023-04-06T00:32:34;3.90;99.90
56512;DHT22;42408;53.238;5.686;2023-04-06T00:35:02;3.90;99.90
56512;DHT22;42408;53.238;5.686;2023-04-06T00:37:28;3.80;99.90
56512;DHT22;42408;53.238;5.686;2023-04-06T00:39:54;3.80;99.90
56512;DHT22;42408;53.238;5.686;2023-04-06T00:42:21;3.80;99.90
56512;DHT22;42408;53.238;5.686;2023-04-06T00:44:56;3.70;99.90
56512;DHT22;42408;53.238;5.686;2023-04-06T00:47:23;3.70;99.90
56512;DHT22;42408;53.238;5.686;2023-04-06T00:49:50;3.70;99.90
56512;DHT22;42408;53.238;5.686;2023-04-06T00:52:17;3.60;99.90
56512;DHT22;42408;53.238;5.686;2023-04-06T00:54:43;3.60;99.90
56512;DHT22;42408;53.238;5.686;2023-04-06T00:57:13;3.70;99.90
56512;DHT22;42408;53.238;5.686;2023-04-06T00:59:39;3.60;99.90
56512;DHT22;42408;53.238;5.686;2023-04-06T01:02:06;3.60;99.90
56512;DHT22;42408;53.238;5.686;2023-04-06T01:04:32;3.60;99.90
56512;DHT22;42408;53.238;5.686;2023-04-06T01:06:58;3.60;99.90
56512;DHT22;42408;53.238;5.686;2023-04-06T01:09:23;3.60;99.90
56512;DHT22;42408;53.238;5.686;2023-04-06T01:11:49;3.50;99.90
56512;DHT22;42408;53.238;5.686;2023-04-06T01:14:15;3.50;99.90
56512;DHT22;42408;53.238;5.686;2023-04-06T01:16:41;3.50;99.90
56512;DHT22;42408;53.238;5.686;2023-04-06T01:19:13;3.50;99.90
56512;DHT22;42408;53.238;5.686;2023-04-06T01:21:41;3.40;99.90
56512;DHT22;42408;53.238;5.686;2023-04-06T01:24:07;3.40;99.90
56512;DHT22;42408;53.238;5.686;2023-04-06T01:26:34;3.40;99.90
56512;DHT22;42408;53.238;5.686;2023-04-06T01:29:00;3.40;99.90
56512;DHT22;42408;53.238;5.686;2023-04-06T01:31:26;3.30;99.90
56512;DHT22;42408;53.238;5.686;2023-04-06T01:33:52;3.30;99.90
56512;DHT22;42408;53.238;5.686;2023-04-06T01:36:18;3.30;99.90
56512;DHT22;42408;53.238;5.686;2023-04-06T01:38:45;3.30;99.90
56512;DHT22;42408;53.238;5.686;2023-04-06T01:41:10;3.30;99.90
56512;DHT22;42408;53.238;5.686;2023-04-06T01:43:36;3.20;99.90
56512;DHT22;42408;53.238;5.686;2023-04-06T01:46:02;3.20;99.90
56512;DHT22;42408;53.238;5.686;2023-04-06T01:48:28;3.20;99.90
56512;DHT22;42408;53.238;5.686;2023-04-06T01:50:54;3.20;99.90
56512;DHT22;42408;53.238;5.686;2023-04-06T01:53:20;3.10;99.90
56512;DHT22;42408;53.238;5.686;2023-04-06T01:55:46;3.20;99.90
56512;DHT22;42408;53.238;5.686;2023-04-06T01:58:12;3.20;99.90
56512;DHT22;42408;53.238;5.686;2023-04-06T02:00:38;3.20;99.90
56512;DHT22;42408;53.238;5.686;2023-04-06T02:03:04;3.10;99.90
56512;DHT22;42408;53.238;5.686;2023-04-06T02:05:31;3.10;99.90
56512;DHT22;42408;53.238;5.686;2023-04-06T02:07:58;3.20;99.90
56512;DHT22;42408;53.238;5.686;2023-04-06T02:10:24;3.10;99.90
56512;DHT22;42408;53.238;5.686;2023-04-06T02:12:50;3.10;99.90
56512;DHT22;42408;53.238;5.686;2023-04-06T02:15:15;3.10;99.90
56512;DHT22;42408;53.238;5.686;2023-04-06T02:17:42;3.10;99.90
56512;DHT22;42408;53.238;5.686;2023-04-06T02:20:08;3.10;99.90
56512;DHT22;42408;53.238;5.686;2023-04-06T02:22:35;3.10;99.90
56512;DHT22;42408;53.238;5.686;2023-04-06T02:25:01;3.10;99.90
56512;DHT22;42408;53.238;5.686;2023-04-06T02:27:27;3.10;99.90
56512;DHT22;42408;53.238;5.686;2023-04-06T02:29:52;3.00;99.90
56512;DHT22;42408;53.238;5.686;2023-04-06T02:32:18;3.00;99.90
56512;DHT22;42408;53.238;5.686;2023-04-06T02:34:44;3.00;99.90
56512;DHT22;42408;53.238;5.686;2023-04-06T02:37:10;3.00;99.90
56512;DHT22;42408;53.238;5.686;2023-04-06T02:39:36;2.90;99.90
56512;DHT22;42408;53.238;5.686;2023-04-06T02:42:01;2.90;99.90
56512;DHT22;42408;53.238;5.686;2023-04-06T02:44:27;3.00;99.90
56512;DHT22;42408;53.238;5.686;2023-04-06T02:46:52;3.00;99.90
56512;DHT22;42408;53.238;5.686;2023-04-06T02:49:18;2.90;99.90
56512;DHT22;42408;53.238;5.686;2023-04-06T02:51:44;2.90;99.90
56512;DHT22;42408;53.238;5.686;2023-04-06T02:54:09;2.90;99.90
56512;DHT22;42408;53.238;5.686;2023-04-06T02:56:35;2.90;99.90
56512;DHT22;42408;53.238;5.686;2023-04-06T02:59:01;2.90;99.90
56512;DHT22;42408;53.238;5.686;2023-04-06T03:01:26;2.90;99.90
56512;DHT22;42408;53.238;5.686;2023-04-06T03:03:52;2.90;99.90
56512;DHT22;42408;53.238;5.686;2023-04-06T03:06:18;4.10;99.90
56512;DHT22;42408;53.238;5.686;2023-04-06T03:08:43;2.90;99.90
56512;DHT22;42408;53.238;5.686;2023-04-06T03:11:09;2.80;99.90
56512;DHT22;42408;53.238;5.686;2023-04-06T03:13:36;2.80;99.90
56512;DHT22;42408;53.238;5.686;2023-04-06T03:16:04;2.90;99.90
56512;DHT22;42408;53.238;5.686;2023-04-06T03:18:31;2.80;99.90
56512;DHT22;42408;53.238;5.686;2023-04-06T03:20:56;2.80;99.90
56512;DHT22;42408;53.238;5.686;2023-04-06T03:23:22;2.80;99.90
56512;DHT22;42408;53.238;5.686;2023-04-06T03:25:48;2.80;99.90
56512;DHT22;42408;53.238;5.686;2023-04-06T03:28:14;2.80;99.90
56512;DHT22;42408;53.238;5.686;2023-04-06T03:30:39;2.80;99.90
56512;DHT22;42408;53.238;5.686;2023-04-06T03:33:05;2.70;99.90
56512;DHT22;42408;53.238;5.686;2023-04-06T03:35:31;2.70;99.90
56512;DHT22;42408;53.238;5.686;2023-04-06T03:37:56;2.70;99.90
56512;DHT22;42408;53.238;5.686;2023-04-06T03:40:23;2.70;99.90
56512;DHT22;42408;53.238;5.686;2023-04-06T03:42:48;2.70;99.90
56512;DHT22;42408;53.238;5.686;2023-04-06T03:45:14;2.70;99.90
56512;DHT22;42408;53.238;5.686;2023-04-06T03:47:40;2.70;99.90
56512;DHT22;42408;53.238;5.686;2023-04-06T03:50:06;2.60;99.90
56512;DHT22;42408;53.238;5.686;2023-04-06T03:52:31;2.70;99.90
56512;DHT22;42408;53.238;5.686;2023-04-06T03:54:57;2.70;99.90
56512;DHT22;42408;53.238;5.686;2023-04-06T03:57:23;2.70;99.90
56512;DHT22;42408;53.238;5.686;2023-04-06T03:59:48;2.60;99.90
56512;DHT22;42408;53.238;5.686;2023-04-06T04:02:14;2.60;99.90
56512;DHT22;42408;53.238;5.686;2023-04-06T04:04:40;2.60;99.90
56512;DHT22;42408;53.238;5.686;2023-04-06T04:07:05;2.60;99.90
56512;DHT22;42408;53.238;5.686;2023-04-06T04:09:31;2.60;99.90
56512;DHT22;42408;53.238;5.686;2023-04-06T04:11:57;2.60;99.90
56512;DHT22;42408;53.238;5.686;2023-04-06T04:14:22;2.60;99.90
56512;DHT22;42408;53.238;5.686;2023-04-06T04:16:49;2.60;99.90
56512;DHT22;42408;53.238;5.686;2023-04-06T04:19:14;2.60;99.90
56512;DHT22;42408;53.238;5.686;2023-04-06T04:21:44;2.60;99.90
56512;DHT22;42408;53.238;5.686;2023-04-06T04:24:10;2.60;99.90
56512;DHT22;42408;53.238;5.686;2023-04-06T04:26:36;2.60;99.90
56512;DHT22;42408;53.238;5.686;2023-04-06T04:29:02;2.60;99.90
56512;DHT22;42408;53.238;5.686;2023-04-06T04:31:28;2.60;99.90
56512;DHT22;42408;53.238;5.686;2023-04-06T04:33:53;2.60;99.90
56512;DHT22;42408;53.238;5.686;2023-04-06T04:36:19;2.60;99.90
56512;DHT22;42408;53.238;5.686;2023-04-06T04:38:45;3.40;99.90
56512;DHT22;42408;53.238;5.686;2023-04-06T04:41:10;2.60;99.90
56512;DHT22;42408;53.238;5.686;2023-04-06T04:43:36;2.60;99.90
56512;DHT22;42408;53.238;5.686;2023-04-06T04:46:02;2.60;99.90
56512;DHT22;42408;53.238;5.686;2023-04-06T04:48:29;2.60;99.90
56512;DHT22;42408;53.238;5.686;2023-04-06T04:50:54;2.60;99.90
56512;DHT22;42408;53.238;5.686;2023-04-06T04:53:20;2.60;99.90
56512;DHT22;42408;53.238;5.686;2023-04-06T04:55:46;2.70;99.90
56512;DHT22;42408;53.238;5.686;2023-04-06T04:58:11;2.70;99.90
56512;DHT22;42408;53.238;5.686;2023-04-06T05:00:42;2.70;99.90
56512;DHT22;42408;53.238;5.686;2023-04-06T05:03:08;2.70;99.90
56512;DHT22;42408;53.238;5.686;2023-04-06T05:05:35;2.70;99.90
56512;DHT22;42408;53.238;5.686;2023-04-06T05:08:01;2.80;99.90
56512;DHT22;42408;53.238;5.686;2023-04-06T05:10:27;2.80;99.90
56512;DHT22;42408;53.238;5.686;2023-04-06T05:12:52;2.80;99.90
56512;DHT22;42408;53.238;5.686;2023-04-06T05:15:18;2.80;99.90
56512;DHT22;42408;53.238;5.686;2023-04-06T05:17:44;2.90;99.90
56512;DHT22;42408;53.238;5.686;2023-04-06T05:20:10;2.80;99.90
56512;DHT22;42408;53.238;5.686;2023-04-06T05:22:36;2.80;99.90
56512;DHT22;42408;53.238;5.686;2023-04-06T05:25:02;2.80;99.90
56512;DHT22;42408;53.238;5.686;2023-04-06T05:27:28;2.90;99.90
56512;DHT22;42408;53.238;5.686;2023-04-06T05:29:54;3.00;99.90
56512;DHT22;42408;53.238;5.686;2023-04-06T05:32:20;2.90;99.90
56512;DHT22;42408;53.238;5.686;2023-04-06T05:34:48;3.00;99.90
56512;DHT22;42408;53.238;5.686;2023-04-06T05:37:15;3.10;99.90
56512;DHT22;42408;53.238;5.686;2023-04-06T05:39:41;3.10;99.90
56512;DHT22;42408;53.238;5.686;2023-04-06T05:42:06;3.20;99.90
56512;DHT22;42408;53.238;5.686;2023-04-06T05:44:32;3.30;99.90
56512;DHT22;42408;53.238;5.686;2023-04-06T05:46:58;3.40;99.90
56512;DHT22;42408;53.238;5.686;2023-04-06T05:49:24;3.50;99.90
56512;DHT22;42408;53.238;5.686;2023-04-06T05:51:49;3.50;99.90
56512;DHT22;42408;53.238;5.686;2023-04-06T05:54:15;3.50;99.90
56512;DHT22;42408;53.238;5.686;2023-04-06T05:56:41;3.70;99.90
56512;DHT22;42408;53.238;5.686;2023-04-06T05:59:06;3.70;99.90
56512;DHT22;42408;53.238;5.686;2023-04-06T06:01:33;3.80;99.90
56512;DHT22;42408;53.238;5.686;2023-04-06T06:04:00;3.90;99.90
56512;DHT22;42408;53.238;5.686;2023-04-06T06:06:28;4.00;99.90
56512;DHT22;42408;53.238;5.686;2023-04-06T06:08:53;4.10;99.90
56512;DHT22;42408;53.238;5.686;2023-04-06T06:11:19;4.30;99.90
56512;DHT22;42408;53.238;5.686;2023-04-06T06:13:45;4.60;99.90
56512;DHT22;42408;53.238;5.686;2023-04-06T06:16:11;5.00;99.90
56512;DHT22;42408;53.238;5.686;2023-04-06T06:18:36;5.50;99.90
56512;DHT22;42408;53.238;5.686;2023-04-06T06:21:02;5.90;99.90
56512;DHT22;42408;53.238;5.686;2023-04-06T06:23:28;6.40;99.90
56512;DHT22;42408;53.238;5.686;2023-04-06T06:25:53;6.80;99.90
56512;DHT22;42408;53.238;5.686;2023-04-06T06:28:19;7.10;99.90
56512;DHT22;42408;53.238;5.686;2023-04-06T06:30:45;7.10;99.90
56512;DHT22;42408;53.238;5.686;2023-04-06T06:33:10;7.10;99.90
56512;DHT22;42408;53.238;5.686;2023-04-06T06:35:36;6.90;99.90
56512;DHT22;42408;53.238;5.686;2023-04-06T06:38:02;6.90;99.90
56512;DHT22;42408;53.238;5.686;2023-04-06T06:40:28;7.00;99.90
56512;DHT22;42408;53.238;5.686;2023-04-06T06:42:53;7.50;99.90
56512;DHT22;42408;53.238;5.686;2023-04-06T06:45:19;8.20;99.90
56512;DHT22;42408;53.238;5.686;2023-04-06T06:47:45;9.00;99.90
56512;DHT22;42408;53.238;5.686;2023-04-06T06:50:11;9.80;99.90
56512;DHT22;42408;53.238;5.686;2023-04-06T06:52:37;10.70;99.90
56512;DHT22;42408;53.238;5.686;2023-04-06T06:55:03;11.40;99.90
56512;DHT22;42408;53.238;5.686;2023-04-06T06:57:28;11.60;99.90
56512;DHT22;42408;53.238;5.686;2023-04-06T06:59:54;11.60;99.90
56512;DHT22;42408;53.238;5.686;2023-04-06T07:02:20;11.20;99.80
56512;DHT22;42408;53.238;5.686;2023-04-06T07:04:48;10.70;99.70
56512;DHT22;42408;53.238;5.686;2023-04-06T07:07:14;10.10;99.90
56512;DHT22;42408;53.238;5.686;2023-04-06T07:09:40;9.60;99.90
56512;DHT22;42408;53.238;5.686;2023-04-06T07:12:06;9.20;99.90
56512;DHT22;42408;53.238;5.686;2023-04-06T07:14:31;8.80;99.90
56512;DHT22;42408;53.238;5.686;2023-04-06T07:16:57;8.50;99.90
56512;DHT22;42408;53.238;5.686;2023-04-06T07:19:23;8.20;99.90
56512;DHT22;42408;53.238;5.686;2023-04-06T07:21:48;8.00;99.90
56512;DHT22;42408;53.238;5.686;2023-04-06T07:24:17;7.80;99.90
56512;DHT22;42408;53.238;5.686;2023-04-06T07:26:42;7.70;99.90
56512;DHT22;42408;53.238;5.686;2023-04-06T07:29:08;7.60;99.90
56512;DHT22;42408;53.238;5.686;2023-04-06T07:31:34;7.60;99.90
56512;DHT22;42408;53.238;5.686;2023-04-06T07:34:01;7.80;99.90
56512;DHT22;42408;53.238;5.686;2023-04-06T07:36:27;8.00;99.90
56512;DHT22;42408;53.238;5.686;2023-04-06T07:38:52;8.80;99.90
56512;DHT22;42408;53.238;5.686;2023-04-06T07:41:18;8.20;99.90
56512;DHT22;42408;53.238;5.686;2023-04-06T07:43:44;8.30;99.90
56512;DHT22;42408;53.238;5.686;2023-04-06T07:46:09;8.30;99.90
56512;DHT22;42408;53.238;5.686;2023-04-06T07:48:35;8.50;99.90
56512;DHT22;42408;53.238;5.686;2023-04-06T07:51:03;8.50;99.90
56512;DHT22;42408;53.238;5.686;2023-04-06T07:53:29;8.80;99.90
56512;DHT22;42408;53.238;5.686;2023-04-06T07:55:57;9.10;99.90
56512;DHT22;42408;53.238;5.686;2023-04-06T07:58:22;9.70;99.90
56512;DHT22;42408;53.238;5.686;2023-04-06T08:00:48;10.10;99.90
56512;DHT22;42408;53.238;5.686;2023-04-06T08:03:13;10.30;99.90
56512;DHT22;42408;53.238;5.686;2023-04-06T08:05:39;10.50;99.90
56512;DHT22;42408;53.238;5.686;2023-04-06T08:08:05;10.80;99.90
56512;DHT22;42408;53.238;5.686;2023-04-06T08:10:31;10.90;99.90
56512;DHT22;42408;53.238;5.686;2023-04-06T08:12:56;10.90;99.90
56512;DHT22;42408;53.238;5.686;2023-04-06T08:15:22;11.10;99.90
56512;DHT22;42408;53.238;5.686;2023-04-06T08:17:48;11.20;99.90
56512;DHT22;42408;53.238;5.686;2023-04-06T08:20:13;11.30;99.90
56512;DHT22;42408;53.238;5.686;2023-04-06T08:22:39;11.40;99.90
56512;DHT22;42408;53.238;5.686;2023-04-06T08:25:05;11.40;99.90
56512;DHT22;42408;53.238;5.686;2023-04-06T08:27:31;11.20;99.90
56512;DHT22;42408;53.238;5.686;2023-04-06T08:29:56;11.10;99.90
56512;DHT22;42408;53.238;5.686;2023-04-06T08:32:22;10.90;99.90
56512;DHT22;42408;53.238;5.686;2023-04-06T08:34:48;10.90;99.90
56512;DHT22;42408;53.238;5.686;2023-04-06T08:37:13;10.70;99.90
56512;DHT22;42408;53.238;5.686;2023-04-06T08:39:39;10.60;99.90
56512;DHT22;42408;53.238;5.686;2023-04-06T08:42:12;10.50;99.90
56512;DHT22;42408;53.238;5.686;2023-04-06T08:44:40;10.50;99.90
56512;DHT22;42408;53.238;5.686;2023-04-06T08:47:06;10.40;99.90
56512;DHT22;42408;53.238;5.686;2023-04-06T08:49:32;10.40;99.90
56512;DHT22;42408;53.238;5.686;2023-04-06T08:52:00;10.40;99.90
56512;DHT22;42408;53.238;5.686;2023-04-06T08:54:26;10.40;99.90
56512;DHT22;42408;53.238;5.686;2023-04-06T08:56:53;10.60;99.90
56512;DHT22;42408;53.238;5.686;2023-04-06T08:59:19;10.50;99.90
56512;DHT22;42408;53.238;5.686;2023-04-06T09:01:44;10.60;99.90
56512;DHT22;42408;53.238;5.686;2023-04-06T09:04:11;10.50;99.90
56512;DHT22;42408;53.238;5.686;2023-04-06T09:06:37;10.60;99.90
56512;DHT22;42408;53.238;5.686;2023-04-06T09:09:03;10.60;99.90
56512;DHT22;42408;53.238;5.686;2023-04-06T09:11:29;10.70;99.90
56512;DHT22;42408;53.238;5.686;2023-04-06T09:14:06;10.70;99.90
56512;DHT22;42408;53.238;5.686;2023-04-06T09:16:39;10.80;99.90
56512;DHT22;42408;53.238;5.686;2023-04-06T09:19:06;10.80;99.90
56512;DHT22;42408;53.238;5.686;2023-04-06T09:21:32;11.00;99.90
56512;DHT22;42408;53.238;5.686;2023-04-06T09:24:02;11.10;99.90
56512;DHT22;42408;53.238;5.686;2023-04-06T09:26:28;11.30;99.90
56512;DHT22;42408;53.238;5.686;2023-04-06T09:28:57;11.40;99.90
56512;DHT22;42408;53.238;5.686;2023-04-06T09:31:27;11.50;99.90
56512;DHT22;42408;53.238;5.686;2023-04-06T09:33:54;11.70;99.90
56512;DHT22;42408;53.238;5.686;2023-04-06T09:36:29;11.80;99.90
56512;DHT22;42408;53.238;5.686;2023-04-06T09:39:01;11.90;99.90
56512;DHT22;42408;53.238;5.686;2023-04-06T09:41:27;12.00;99.90
56512;DHT22;42408;53.238;5.686;2023-04-06T09:44:10;12.00;99.90
56512;DHT22;42408;53.238;5.686;2023-04-06T09:46:41;12.00;99.90
56512;DHT22;42408;53.238;5.686;2023-04-06T09:49:08;11.90;99.90
56512;DHT22;42408;53.238;5.686;2023-04-06T09:51:41;11.90;99.90
56512;DHT22;42408;53.238;5.686;2023-04-06T09:54:07;11.90;99.90
56512;DHT22;42408;53.238;5.686;2023-04-06T09:56:56;11.80;99.90
56512;DHT22;42408;53.238;5.686;2023-04-06T10:02:44;11.80;99.90
56512;DHT22;42408;53.238;5.686;2023-04-06T10:08:11;11.90;99.90
56512;DHT22;42408;53.238;5.686;2023-04-06T10:10:37;12.00;99.90
56512;DHT22;42408;53.238;5.686;2023-04-06T10:13:07;12.00;99.90
56512;DHT22;42408;53.238;5.686;2023-04-06T10:15:33;12.10;99.90
56512;DHT22;42408;53.238;5.686;2023-04-06T10:17:59;12.10;99.90
56512;DHT22;42408;53.238;5.686;2023-04-06T10:25:58;12.40;99.90
56512;DHT22;42408;53.238;5.686;2023-04-06T10:28:24;12.40;99.90
56512;DHT22;42408;53.238;5.686;2023-04-06T10:30:57;12.30;99.90
56512;DHT22;42408;53.238;5.686;2023-04-06T10:33:23;12.30;99.90
56512;DHT22;42408;53.238;5.686;2023-04-06T10:35:49;12.40;99.90
56512;DHT22;42408;53.238;5.686;2023-04-06T10:38:15;12.40;99.90
56512;DHT22;42408;53.238;5.686;2023-04-06T10:40:45;12.40;99.90
56512;DHT22;42408;53.238;5.686;2023-04-06T10:43:19;12.40;99.90
56512;DHT22;42408;53.238;5.686;2023-04-06T10:45:44;12.40;99.90
56512;DHT22;42408;53.238;5.686;2023-04-06T10:48:18;12.40;99.90
56512;DHT22;42408;53.238;5.686;2023-04-06T10:50:46;12.50;99.90
56512;DHT22;42408;53.238;5.686;2023-04-06T10:53:21;12.50;99.90
56512;DHT22;42408;53.238;5.686;2023-04-06T10:55:47;12.60;99.90
56512;DHT22;42408;53.238;5.686;2023-04-06T10:58:14;12.50;99.90
56512;DHT22;42408;53.238;5.686;2023-04-06T11:00:49;12.40;99.90
56512;DHT22;42408;53.238;5.686;2023-04-06T11:03:15;12.50;99.90
56512;DHT22;42408;53.238;5.686;2023-04-06T11:05:45;12.60;99.90
56512;DHT22;42408;53.238;5.686;2023-04-06T11:08:32;12.70;99.90
56512;DHT22;42408;53.238;5.686;2023-04-06T11:11:13;12.70;99.90
56512;DHT22;42408;53.238;5.686;2023-04-06T11:13:49;12.80;99.90
56512;DHT22;42408;53.238;5.686;2023-04-06T11:16:18;12.90;99.90
56512;DHT22;42408;53.238;5.686;2023-04-06T11:19:05;13.00;99.90
56512;DHT22;42408;53.238;5.686;2023-04-06T11:21:44;12.90;99.90
56512;DHT22;42408;53.238;5.686;2023-04-06T11:26:55;12.90;99.90
56512;DHT22;42408;53.238;5.686;2023-04-06T11:29:22;12.90;99.90
56512;DHT22;42408;53.238;5.686;2023-04-06T11:31:50;12.90;99.90
56512;DHT22;42408;53.238;5.686;2023-04-06T11:34:20;12.90;99.90
56512;DHT22;42408;53.238;5.686;2023-04-06T11:36:49;12.90;99.90
56512;DHT22;42408;53.238;5.686;2023-04-06T11:39:21;12.90;99.90
56512;DHT22;42408;53.238;5.686;2023-04-06T11:41:51;12.90;99.90
56512;DHT22;42408;53.238;5.686;2023-04-06T11:44:44;12.90;99.90
56512;DHT22;42408;53.238;5.686;2023-04-06T11:47:11;12.80;99.90
56512;DHT22;42408;53.238;5.686;2023-04-06T11:49:39;12.80;99.90
56512;DHT22;42408;53.238;5.686;2023-04-06T11:52:21;12.80;99.90
56512;DHT22;42408;53.238;5.686;2023-04-06T11:54:49;12.90;99.90
56512;DHT22;42408;53.238;5.686;2023-04-06T11:57:15;12.90;99.90
56512;DHT22;42408;53.238;5.686;2023-04-06T11:59:41;12.90;99.90
56512;DHT22;42408;53.238;5.686;2023-04-06T12:02:07;12.90;99.90
56512;DHT22;42408;53.238;5.686;2023-04-06T12:04:33;13.00;99.90
56512;DHT22;42408;53.238;5.686;2023-04-06T12:06:59;12.90;99.90
56512;DHT22;42408;53.238;5.686;2023-04-06T12:09:24;12.90;99.90
56512;DHT22;42408;53.238;5.686;2023-04-06T12:11:50;13.00;99.90
56512;DHT22;42408;53.238;5.686;2023-04-06T12:14:16;12.90;99.90
56512;DHT22;42408;53.238;5.686;2023-04-06T12:16:42;12.90;99.90
56512;DHT22;42408;53.238;5.686;2023-04-06T12:19:08;12.70;99.90
56512;DHT22;42408;53.238;5.686;2023-04-06T12:21:34;12.60;99.90
56512;DHT22;42408;53.238;5.686;2023-04-06T12:24:02;12.50;99.90
56512;DHT22;42408;53.238;5.686;2023-04-06T12:26:28;12.30;99.90
56512;DHT22;42408;53.238;5.686;2023-04-06T12:28:53;12.40;99.90
56512;DHT22;42408;53.238;5.686;2023-04-06T12:31:21;12.40;99.90
56512;DHT22;42408;53.238;5.686;2023-04-06T12:33:48;12.30;99.90
56512;DHT22;42408;53.238;5.686;2023-04-06T12:36:14;12.10;99.90
56512;DHT22;42408;53.238;5.686;2023-04-06T12:38:41;12.10;99.90
56512;DHT22;42408;53.238;5.686;2023-04-06T12:41:07;12.00;99.90
56512;DHT22;42408;53.238;5.686;2023-04-06T12:43:33;12.00;99.90
56512;DHT22;42408;53.238;5.686;2023-04-06T12:45:59;12.00;99.90
56512;DHT22;42408;53.238;5.686;2023-04-06T12:48:27;11.90;99.90
56512;DHT22;42408;53.238;5.686;2023-04-06T12:50:58;11.90;99.90
56512;DHT22;42408;53.238;5.686;2023-04-06T12:53:23;11.90;99.90
56512;DHT22;42408;53.238;5.686;2023-04-06T12:55:49;11.80;99.90
56512;DHT22;42408;53.238;5.686;2023-04-06T12:58:15;11.80;99.90
56512;DHT22;42408;53.238;5.686;2023-04-06T13:00:42;11.70;99.90
56512;DHT22;42408;53.238;5.686;2023-04-06T13:03:07;11.60;99.90
56512;DHT22;42408;53.238;5.686;2023-04-06T13:05:33;11.50;99.90
56512;DHT22;42408;53.238;5.686;2023-04-06T13:07:59;11.40;99.90
56512;DHT22;42408;53.238;5.686;2023-04-06T13:10:24;11.30;99.90
56512;DHT22;42408;53.238;5.686;2023-04-06T13:12:50;11.20;99.90
56512;DHT22;42408;53.238;5.686;2023-04-06T13:15:16;11.10;99.90
56512;DHT22;42408;53.238;5.686;2023-04-06T13:17:42;11.20;99.90
56512;DHT22;42408;53.238;5.686;2023-04-06T13:20:08;11.00;99.90
56512;DHT22;42408;53.238;5.686;2023-04-06T13:22:33;10.90;99.90
56512;DHT22;42408;53.238;5.686;2023-04-06T13:24:59;10.90;99.90
56512;DHT22;42408;53.238;5.686;2023-04-06T13:27:25;10.90;99.90
56512;DHT22;42408;53.238;5.686;2023-04-06T13:29:52;10.70;99.90
56512;DHT22;42408;53.238;5.686;2023-04-06T13:32:18;10.70;99.90
56512;DHT22;42408;53.238;5.686;2023-04-06T13:34:44;10.70;99.90
56512;DHT22;42408;53.238;5.686;2023-04-06T13:37:14;10.70;99.90
56512;DHT22;42408;53.238;5.686;2023-04-06T13:39:40;10.60;99.90
56512;DHT22;42408;53.238;5.686;2023-04-06T13:42:06;10.60;99.90
56512;DHT22;42408;53.238;5.686;2023-04-06T13:44:32;10.50;99.90
56512;DHT22;42408;53.238;5.686;2023-04-06T13:46:58;10.60;99.90
56512;DHT22;42408;53.238;5.686;2023-04-06T13:49:23;10.50;99.90
56512;DHT22;42408;53.238;5.686;2023-04-06T13:51:49;10.50;99.90
56512;DHT22;42408;53.238;5.686;2023-04-06T13:54:15;10.40;99.90
56512;DHT22;42408;53.238;5.686;2023-04-06T13:56:41;10.40;99.90
56512;DHT22;42408;53.238;5.686;2023-04-06T13:59:06;10.30;99.90
56512;DHT22;42408;53.238;5.686;2023-04-06T14:01:32;10.30;99.90
56512;DHT22;42408;53.238;5.686;2023-04-06T14:03:58;10.20;99.90
56512;DHT22;42408;53.238;5.686;2023-04-06T14:06:23;10.10;99.90
56512;DHT22;42408;53.238;5.686;2023-04-06T14:08:50;10.10;99.90
56512;DHT22;42408;53.238;5.686;2023-04-06T14:11:15;10.00;99.90
56512;DHT22;42408;53.238;5.686;2023-04-06T14:13:41;9.90;99.90
56512;DHT22;42408;53.238;5.686;2023-04-06T14:16:07;9.90;99.90
56512;DHT22;42408;53.238;5.686;2023-04-06T14:18:33;9.90;99.90
56512;DHT22;42408;53.238;5.686;2023-04-06T14:21:00;9.90;99.90
56512;DHT22;42408;53.238;5.686;2023-04-06T14:23:27;9.80;99.90
56512;DHT22;42408;53.238;5.686;2023-04-06T14:26:07;9.80;99.90
56512;DHT22;42408;53.238;5.686;2023-04-06T14:28:34;9.80;99.90
56512;DHT22;42408;53.238;5.686;2023-04-06T14:31:01;9.60;99.90
56512;DHT22;42408;53.238;5.686;2023-04-06T14:33:28;9.60;99.90
56512;DHT22;42408;53.238;5.686;2023-04-06T14:35:55;9.60;99.90
56512;DHT22;42408;53.238;5.686;2023-04-06T14:38:21;9.60;99.90
56512;DHT22;42408;53.238;5.686;2023-04-06T14:40:47;9.50;99.90
56512;DHT22;42408;53.238;5.686;2023-04-06T14:43:13;9.50;99.90
56512;DHT22;42408;53.238;5.686;2023-04-06T14:45:39;9.50;99.90
56512;DHT22;42408;53.238;5.686;2023-04-06T14:48:05;9.50;99.90
56512;DHT22;42408;53.238;5.686;2023-04-06T14:50:32;9.40;99.90
56512;DHT22;42408;53.238;5.686;2023-04-06T14:52:59;9.30;99.90
56512;DHT22;42408;53.238;5.686;2023-04-06T14:55:26;9.30;99.90
56512;DHT22;42408;53.238;5.686;2023-04-06T14:57:51;9.30;99.90
56512;DHT22;42408;53.238;5.686;2023-04-06T15:00:17;9.20;99.90
56512;DHT22;42408;53.238;5.686;2023-04-06T15:02:43;9.20;99.90
56512;DHT22;42408;53.238;5.686;2023-04-06T15:05:09;9.10;99.90
56512;DHT22;42408;53.238;5.686;2023-04-06T15:07:34;9.10;99.90
56512;DHT22;42408;53.238;5.686;2023-04-06T15:10:00;9.20;99.90
56512;DHT22;42408;53.238;5.686;2023-04-06T15:12:26;9.20;99.90
56512;DHT22;42408;53.238;5.686;2023-04-06T15:14:51;9.10;99.90
56512;DHT22;42408;53.238;5.686;2023-04-06T15:17:17;9.10;99.90
56512;DHT22;42408;53.238;5.686;2023-04-06T15:19:43;9.10;99.90
56512;DHT22;42408;53.238;5.686;2023-04-06T15:22:08;9.00;99.90
56512;DHT22;42408;53.238;5.686;2023-04-06T15:24:36;9.00;99.90
56512;DHT22;42408;53.238;5.686;2023-04-06T15:27:02;9.00;99.90
56512;DHT22;42408;53.238;5.686;2023-04-06T15:29:27;9.00;99.90
56512;DHT22;42408;53.238;5.686;2023-04-06T15:31:55;8.90;99.90
56512;DHT22;42408;53.238;5.686;2023-04-06T15:34:21;8.90;99.90
56512;DHT22;42408;53.238;5.686;2023-04-06T15:36:46;8.90;99.90
56512;DHT22;42408;53.238;5.686;2023-04-06T15:39:12;8.80;99.90
56512;DHT22;42408;53.238;5.686;2023-04-06T15:41:38;8.80;99.90
56512;DHT22;42408;53.238;5.686;2023-04-06T15:44:04;8.80;99.90
56512;DHT22;42408;53.238;5.686;2023-04-06T15:46:30;8.80;99.90
56512;DHT22;42408;53.238;5.686;2023-04-06T15:48:56;8.80;99.90
56512;DHT22;42408;53.238;5.686;2023-04-06T15:51:22;8.90;99.90